Time;durP1;ratioP1;P1;durP2;ratioP2;P2;SDS_P1;SDS_P2;PMS_P1;PMS_P2;Temp;Humidity;BMP_temperature;BMP_pressure;BME280_temperature;BME280_humidity;BME280_pressure;Samples;Min_cycle;Max_cycle;Signal;HPM_P1;HPM_P2
2022/06/01 00:02:25;;;;;;;3.20;1.90;;;13.70;97.80;;;;;;5075452;28;20432;-64
2022/06/01 00:04:52;;;;;;;3.40;2.33;;;13.60;97.80;;;;;;5075114;28;20432;-64
2022/06/01 00:07:19;;;;;;;3.03;1.90;;;13.60;98.00;;;;;;5075391;28;20495;-64
2022/06/01 00:09:46;;;;;;;3.13;1.90;;;13.50;98.20;;;;;;5075127;28;20533;-64
2022/06/01 00:12:12;;;;;;;5.07;2.40;;;13.40;98.50;;;;;;5074601;28;20432;-65
2022/06/01 00:14:41;;;;;;;2.53;1.90;;;13.40;98.50;;;;;;5075174;28;20554;-64
2022/06/01 00:17:07;;;;;;;3.70;2.40;;;13.40;98.30;;;;;;5075241;28;20855;-65
2022/06/01 00:19:34;;;;;;;2.40;1.83;;;13.40;98.10;;;;;;5074569;28;20949;-64
2022/06/01 00:22:14;;;;;;;3.30;2.03;;;13.40;98.00;;;;;;5074760;28;20446;-66
2022/06/01 00:24:42;;;;;;;2.97;1.90;;;13.40;98.00;;;;;;5075181;28;20444;-66
2022/06/01 00:27:10;;;;;;;2.53;1.40;;;13.40;97.90;;;;;;5074968;28;20440;-67
2022/06/01 00:29:38;;;;;;;3.33;2.03;;;13.40;98.00;;;;;;5074520;28;20555;-65
2022/06/01 00:32:11;;;;;;;2.77;2.10;;;13.30;98.10;;;;;;5074697;28;20450;-65
2022/06/01 00:34:38;;;;;;;2.77;1.80;;;13.30;98.20;;;;;;5074801;28;20442;-65
2022/06/01 00:37:05;;;;;;;3.28;2.97;;;13.20;98.30;;;;;;5074781;28;20432;-65
2022/06/01 00:39:32;;;;;;;3.07;1.80;;;13.20;98.10;;;;;;5074863;28;20276;-65
2022/06/01 00:42:10;;;;;;;3.80;1.97;;;13.20;97.90;;;;;;5074885;28;20436;-65
2022/06/01 00:44:37;;;;;;;3.97;1.40;;;13.20;98.00;;;;;;5074711;28;20471;-65
2022/06/01 00:47:05;;;;;;;2.80;2.00;;;13.10;98.10;;;;;;5073824;28;20531;-65
2022/06/01 00:49:34;;;;;;;3.10;1.90;;;13.20;98.00;;;;;;5074258;28;20473;-65
2022/06/01 00:52:02;;;;;;;3.60;2.10;;;13.20;97.90;;;;;;5074468;28;20922;-65
2022/06/01 00:54:29;;;;;;;3.13;1.90;;;13.20;97.90;;;;;;5074277;28;20922;-66
2022/06/01 00:56:58;;;;;;;4.78;2.00;;;13.10;98.00;;;;;;5074434;28;20511;-64
2022/06/01 00:59:33;;;;;;;2.00;1.17;;;13.10;98.00;;;;;;5074157;28;20280;-65
2022/06/01 01:02:02;;;;;;;2.25;1.80;;;13.10;97.90;;;;;;5074559;28;20220;-64
2022/06/01 01:04:33;;;;;;;2.60;1.73;;;13.10;97.80;;;;;;5074222;28;20655;-64
2022/06/01 01:07:04;;;;;;;2.42;1.70;;;13.00;98.00;;;;;;5074266;28;20447;-65
2022/06/01 01:09:31;;;;;;;2.78;1.70;;;13.00;98.00;;;;;;5073898;28;20189;-65
2022/06/01 01:12:05;;;;;;;2.80;1.30;;;13.00;97.90;;;;;;5074180;28;20204;-64
2022/06/01 01:14:34;;;;;;;3.50;1.70;;;13.00;97.70;;;;;;5074009;28;20432;-65
2022/06/01 01:17:02;;;;;;;3.47;1.47;;;13.00;97.80;;;;;;5074127;28;20517;-66
2022/06/01 01:19:35;;;;;;;3.00;1.50;;;13.00;97.80;;;;;;5074095;28;20438;-64
2022/06/01 01:22:14;;;;;;;2.17;1.50;;;13.10;97.80;;;;;;5073377;28;20467;-66
2022/06/01 01:24:51;;;;;;;2.90;1.60;;;13.10;97.80;;;;;;5073485;28;20796;-64
2022/06/01 01:27:19;;;;;;;2.27;1.57;;;13.10;97.60;;;;;;5073832;28;20535;-64
2022/06/01 01:29:46;;;;;;;2.73;1.93;;;13.10;97.40;;;;;;5073170;28;20527;-65
2022/06/01 01:32:15;;;;;;;2.30;1.50;;;13.00;97.00;;;;;;5073502;28;20443;-65
2022/06/01 01:34:44;;;;;;;2.30;1.50;;;13.00;97.20;;;;;;5073750;28;20539;-65
2022/06/01 01:37:18;;;;;;;3.17;2.40;;;13.00;97.20;;;;;;5073276;28;20454;-64
2022/06/01 01:39:45;;;;;;;5.73;2.30;;;13.00;97.20;;;;;;5073342;28;20447;-66
2022/06/01 01:42:12;;;;;;;2.30;1.27;;;13.00;97.30;;;;;;5073213;28;20436;-65
2022/06/01 01:44:47;;;;;;;3.03;1.83;;;12.90;97.20;;;;;;5073105;28;20197;-65
2022/06/01 01:47:14;;;;;;;3.10;2.13;;;12.90;97.10;;;;;;5073236;28;20608;-64
2022/06/01 01:49:42;;;;;;;3.60;2.63;;;12.80;97.30;;;;;;5073198;28;20870;-65
2022/06/01 01:52:12;;;;;;;3.63;2.30;;;12.80;97.50;;;;;;5073014;28;20440;-65
2022/06/01 01:54:46;;;;;;;3.77;2.93;;;12.80;97.60;;;;;;5073102;28;20186;-65
2022/06/01 01:57:25;;;;;;;2.90;2.10;;;12.70;97.70;;;;;;5073179;28;20526;-64
2022/06/01 02:00:10;;;;;;;3.38;2.45;;;12.70;97.80;;;;;;5073073;28;20479;-64
2022/06/01 02:02:49;;;;;;;3.30;2.07;;;12.80;97.90;;;;;;5072664;28;20655;-65
2022/06/01 02:08:14;;;;;;;2.40;1.60;;;12.70;97.70;;;;;;5073117;28;20462;-64
2022/06/01 02:13:26;;;;;;;2.50;1.60;;;12.70;97.80;;;;;;5072920;28;20197;-65
2022/06/01 02:15:58;;;;;;;2.63;1.80;;;12.70;97.70;;;;;;5072940;28;20515;-65
2022/06/01 02:18:28;;;;;;;3.90;2.00;;;12.80;97.70;;;;;;5072837;28;20531;-65
2022/06/01 02:20:58;;;;;;;2.80;1.50;;;12.70;97.40;;;;;;5072803;28;20432;-64
2022/06/01 02:23:25;;;;;;;3.42;1.75;;;12.70;97.50;;;;;;5072723;28;20460;-64
2022/06/01 02:25:55;;;;;;;2.87;1.80;;;12.70;97.40;;;;;;5072832;28;20194;-65
2022/06/01 02:28:22;;;;;;;3.17;1.92;;;12.70;97.40;;;;;;5072949;28;20439;-64
2022/06/01 02:30:50;;;;;;;4.65;2.30;;;12.80;97.40;;;;;;5072621;28;20225;-64
2022/06/01 02:33:24;;;;;;;4.80;2.45;;;12.80;97.30;;;;;;5072866;28;20196;-64
2022/06/01 02:35:53;;;;;;;4.10;2.35;;;12.70;97.20;;;;;;5072640;28;20189;-69
2022/06/01 02:38:25;;;;;;;2.40;1.90;;;12.70;97.10;;;;;;5072773;28;20189;-64
2022/06/01 02:40:52;;;;;;;2.53;1.43;;;12.70;96.90;;;;;;5072365;28;20488;-64
2022/06/01 02:43:19;;;;;;;5.40;2.30;;;12.70;96.60;;;;;;5072230;28;20766;-64
2022/06/01 02:45:46;;;;;;;2.43;1.80;;;12.60;96.50;;;;;;5072411;28;20200;-65
2022/06/01 02:48:12;;;;;;;3.43;2.27;;;12.60;96.60;;;;;;5072050;28;20468;-65
2022/06/01 02:50:41;;;;;;;2.67;1.63;;;12.60;96.90;;;;;;5072418;28;20566;-65
2022/06/01 02:53:09;;;;;;;4.43;1.47;;;12.60;97.20;;;;;;5072292;28;20522;-65
2022/06/01 02:55:36;;;;;;;3.30;2.50;;;12.60;97.10;;;;;;5072530;28;20447;-65
2022/06/01 02:58:03;;;;;;;2.65;1.90;;;12.60;97.30;;;;;;5072412;28;20289;-65
2022/06/01 03:00:34;;;;;;;5.55;1.98;;;12.50;97.40;;;;;;5072415;28;20277;-64
2022/06/01 03:03:02;;;;;;;3.28;1.58;;;12.50;97.50;;;;;;5072587;28;20189;-64
2022/06/01 03:05:32;;;;;;;2.47;2.05;;;12.50;97.40;;;;;;5072392;28;20288;-64
2022/06/01 03:08:00;;;;;;;3.73;3.40;;;12.40;97.30;;;;;;5071794;28;20678;-64
2022/06/01 03:10:27;;;;;;;3.40;2.60;;;12.50;97.40;;;;;;5072166;28;20479;-64
2022/06/01 03:12:55;;;;;;;4.40;2.47;;;12.50;97.60;;;;;;5072229;28;20442;-64
2022/06/01 03:15:24;;;;;;;2.30;2.03;;;12.50;97.60;;;;;;5072101;28;20502;-64
2022/06/01 03:17:51;;;;;;;2.93;2.33;;;12.50;97.50;;;;;;5071930;28;20740;-64
2022/06/01 03:20:21;;;;;;;2.75;2.22;;;12.50;97.40;;;;;;5071749;28;20439;-64
2022/06/01 03:22:48;;;;;;;2.40;1.80;;;12.50;97.40;;;;;;5072194;28;20196;-65
2022/06/01 03:25:22;;;;;;;2.90;2.47;;;12.50;97.30;;;;;;5071895;28;20189;-64
2022/06/01 03:27:50;;;;;;;2.40;1.80;;;12.50;97.10;;;;;;5072253;28;20440;-65
2022/06/01 03:30:18;;;;;;;2.60;1.95;;;12.50;97.40;;;;;;5071902;28;20193;-64
2022/06/01 03:32:46;;;;;;;3.60;2.10;;;12.40;96.80;;;;;;5069633;28;20194;-64
2022/06/01 03:35:15;;;;;;;4.20;2.08;;;12.30;97.10;;;;;;5071496;28;20186;-65
2022/06/01 03:37:42;;;;;;;3.25;1.85;;;12.30;97.00;;;;;;5071514;28;20189;-64
2022/06/01 03:40:11;;;;;;;2.83;1.85;;;12.20;97.00;;;;;;5071282;28;20280;-66
2022/06/01 03:42:39;;;;;;;3.58;2.22;;;12.10;97.70;;;;;;5071458;28;20198;-65
2022/06/01 03:47:53;;;;;;;2.85;2.42;;;12.00;98.60;;;;;;5074036;28;20760;-64
2022/06/01 03:50:20;;;;;;;3.28;2.22;;;12.00;98.70;;;;;;5073802;28;20235;-65
2022/06/01 03:52:47;;;;;;;4.05;2.15;;;12.00;98.80;;;;;;5075159;28;20698;-64
2022/06/01 03:55:15;;;;;;;3.42;2.40;;;12.10;98.60;;;;;;5074706;28;20208;-64
2022/06/01 03:57:44;;;;;;;4.82;1.90;;;12.10;98.60;;;;;;5074568;28;20189;-65
2022/06/01 04:00:15;;;;;;;2.95;1.98;;;12.20;98.80;;;;;;5074818;28;20598;-64
2022/06/01 04:02:43;;;;;;;3.25;2.38;;;12.30;98.80;;;;;;5075217;28;20185;-65
2022/06/01 04:05:10;;;;;;;3.95;2.55;;;12.30;98.60;;;;;;5074410;28;20276;-65
2022/06/01 04:07:37;;;;;;;3.05;2.05;;;12.30;98.60;;;;;;5074940;28;20225;-65
2022/06/01 04:10:06;;;;;;;3.05;2.25;;;12.40;98.80;;;;;;5075080;28;20263;-65
2022/06/01 04:12:33;;;;;;;2.70;1.95;;;12.50;98.90;;;;;;5072082;28;20299;-64
2022/06/01 04:15:02;;;;;;;4.43;2.47;;;12.50;98.90;;;;;;5074274;28;20228;-64
2022/06/01 04:17:29;;;;;;;2.67;1.80;;;12.60;98.80;;;;;;5074459;28;20444;-64
2022/06/01 04:19:56;;;;;;;2.83;1.60;;;12.70;98.70;;;;;;5074605;28;20527;-64
2022/06/01 04:22:23;;;;;;;4.17;2.10;;;12.70;98.20;;;;;;5074326;28;20447;-64
2022/06/01 04:24:50;;;;;;;4.47;1.93;;;12.80;98.40;;;;;;5074394;28;20536;-65
2022/06/01 04:27:18;;;;;;;2.80;1.80;;;12.90;98.50;;;;;;5073311;28;20451;-65
2022/06/01 04:29:45;;;;;;;2.77;2.27;;;12.90;98.50;;;;;;5074380;28;20476;-64
2022/06/01 04:32:19;;;;;;;7.47;2.20;;;12.90;98.20;;;;;;5074676;28;20586;-66
2022/06/01 04:34:46;;;;;;;3.00;2.00;;;12.90;98.20;;;;;;5054747;28;20203;-64
2022/06/01 04:37:14;;;;;;;3.33;2.60;;;12.90;98.40;;;;;;5054574;28;20464;-65
2022/06/01 04:39:40;;;;;;;2.60;2.00;;;12.90;98.40;;;;;;5054710;28;20441;-65
2022/06/01 04:42:08;;;;;;;4.30;2.33;;;12.90;98.50;;;;;;5054654;28;20200;-65
2022/06/01 04:44:35;;;;;;;3.53;3.13;;;13.00;98.60;;;;;;5054895;28;20240;-65
2022/06/01 04:47:02;;;;;;;2.60;1.83;;;13.00;98.80;;;;;;5054960;28;20502;-66
2022/06/01 04:49:30;;;;;;;6.82;2.00;;;13.20;98.70;;;;;;5055094;28;20533;-65
2022/06/01 04:51:57;;;;;;;4.63;1.90;;;13.20;98.80;;;;;;5054812;28;20541;-65
2022/06/01 04:54:24;;;;;;;6.20;2.20;;;13.30;98.90;;;;;;5054652;28;20528;-64
2022/06/01 04:56:51;;;;;;;4.70;2.33;;;13.40;98.80;;;;;;5054339;28;20463;-64
2022/06/01 04:59:18;;;;;;;4.50;2.47;;;13.50;99.10;;;;;;5054719;28;20524;-65
2022/06/01 05:01:45;;;;;;;4.43;2.80;;;13.60;99.50;;;;;;5054758;28;20515;-64
2022/06/01 05:04:12;;;;;;;3.53;2.47;;;13.80;99.50;;;;;;5054639;28;20524;-65
2022/06/01 05:06:40;;;;;;;4.47;2.30;;;13.90;99.70;;;;;;5054549;28;20472;-64
2022/06/01 05:09:08;;;;;;;33.17;20.57;;;14.10;99.50;;;;;;5054433;28;20477;-65
2022/06/01 05:11:35;;;;;;;83.20;50.67;;;14.30;99.10;;;;;;5054343;28;20485;-65
2022/06/01 05:14:03;;;;;;;33.80;22.10;;;14.30;98.70;;;;;;5053989;28;20441;-66
2022/06/01 05:16:31;;;;;;;8.90;5.67;;;14.40;97.40;;;;;;5054239;28;20520;-64
2022/06/01 05:18:58;;;;;;;8.77;4.00;;;14.50;96.40;;;;;;5054583;28;20516;-65
2022/06/01 05:21:25;;;;;;;4.30;2.47;;;14.50;96.40;;;;;;5054357;28;20445;-65
2022/06/01 05:23:53;;;;;;;13.73;9.87;;;14.60;96.50;;;;;;5054409;28;20813;-64
2022/06/01 05:26:20;;;;;;;6.20;4.10;;;14.60;95.70;;;;;;5054299;28;20532;-65
2022/06/01 05:28:47;;;;;;;3.70;2.43;;;14.70;96.00;;;;;;5054218;28;20784;-66
2022/06/01 05:31:15;;;;;;;5.13;2.30;;;14.80;95.30;;;;;;5054165;28;20479;-65
2022/06/01 05:33:44;;;;;;;2.93;2.00;;;14.90;94.80;;;;;;5053732;28;20540;-64
2022/06/01 05:36:11;;;;;;;7.83;4.83;;;15.00;94.80;;;;;;5054138;28;20441;-65
2022/06/01 05:38:38;;;;;;;4.13;3.03;;;15.00;93.90;;;;;;5053977;28;20543;-65
2022/06/01 05:41:07;;;;;;;6.60;4.23;;;14.90;94.40;;;;;;5054177;28;20464;-65
2022/06/01 05:43:35;;;;;;;5.80;4.63;;;15.00;94.70;;;;;;5054040;28;20449;-65
2022/06/01 05:46:02;;;;;;;6.90;5.00;;;15.10;95.50;;;;;;5054021;28;20441;-65
2022/06/01 05:48:29;;;;;;;5.63;2.70;;;15.20;95.50;;;;;;5053880;28;20986;-64
2022/06/01 05:50:56;;;;;;;6.97;5.00;;;15.40;95.70;;;;;;5053635;28;20476;-65
2022/06/01 05:53:23;;;;;;;16.87;13.30;;;15.50;95.50;;;;;;5053809;28;20451;-65
2022/06/01 05:55:51;;;;;;;6.10;4.77;;;15.50;95.60;;;;;;5053583;28;20440;-65
2022/06/01 05:58:21;;;;;;;16.23;11.40;;;15.60;95.10;;;;;;5053745;28;20506;-65
2022/06/01 06:00:49;;;;;;;4.00;3.00;;;15.70;95.10;;;;;;5053701;28;20436;-64
2022/06/01 06:03:18;;;;;;;3.03;1.80;;;15.70;96.10;;;;;;5053570;28;20532;-65
2022/06/01 06:08:30;;;;;;;3.50;1.73;;;15.80;96.50;;;;;;5053386;28;20471;-65
2022/06/01 06:10:57;;;;;;;3.90;2.53;;;15.90;95.60;;;;;;5053328;28;20441;-65
2022/06/01 06:13:25;;;;;;;3.03;1.80;;;16.00;95.50;;;;;;5053536;28;20480;-66
2022/06/01 06:15:52;;;;;;;4.40;2.00;;;16.10;95.30;;;;;;5053349;28;20499;-65
2022/06/01 06:18:19;;;;;;;2.53;1.93;;;16.20;95.00;;;;;;5053130;28;20441;-65
2022/06/01 06:20:47;;;;;;;2.60;1.70;;;16.20;94.70;;;;;;5053419;28;20518;-65
2022/06/01 06:23:14;;;;;;;3.03;1.67;;;16.30;93.90;;;;;;5053361;28;20472;-65
2022/06/01 06:25:42;;;;;;;2.53;1.93;;;16.30;93.50;;;;;;5053188;28;20782;-65
2022/06/01 06:28:09;;;;;;;3.70;2.60;;;16.30;93.80;;;;;;5053325;28;20528;-65
2022/06/01 06:30:39;;;;;;;4.60;3.03;;;16.40;94.20;;;;;;5053214;28;20543;-65
2022/06/01 06:33:07;;;;;;;9.07;5.43;;;16.50;94.70;;;;;;5053096;28;20575;-65
2022/06/01 06:35:34;;;;;;;7.23;3.93;;;16.60;92.90;;;;;;5053132;28;20439;-65
2022/06/01 06:38:02;;;;;;;5.33;2.50;;;16.60;92.70;;;;;;5052724;28;20983;-65
2022/06/01 06:40:29;;;;;;;6.70;5.10;;;16.70;91.40;;;;;;5053106;28;20540;-65
2022/06/01 06:42:56;;;;;;;7.10;4.30;;;16.80;92.50;;;;;;5053071;28;20864;-65
2022/06/01 06:45:23;;;;;;;3.33;2.77;;;16.80;91.90;;;;;;5052901;28;20441;-65
2022/06/01 06:47:51;;;;;;;3.57;2.43;;;16.90;91.90;;;;;;5052765;28;20867;-65
2022/06/01 06:50:21;;;;;;;2.47;2.10;;;17.00;92.10;;;;;;5053009;28;20535;-65
2022/06/01 06:52:48;;;;;;;2.83;2.20;;;17.10;91.80;;;;;;5052896;28;20575;-65
2022/06/01 06:55:15;;;;;;;2.47;1.73;;;17.20;91.50;;;;;;5052784;28;20798;-66
2022/06/01 06:57:43;;;;;;;3.70;1.93;;;17.30;91.00;;;;;;5052967;28;20452;-65
2022/06/01 07:00:11;;;;;;;5.00;1.90;;;17.50;90.60;;;;;;5052196;28;20981;-65
2022/06/01 07:02:38;;;;;;;3.87;2.00;;;17.70;88.10;;;;;;5052782;28;20835;-66
2022/06/01 07:05:08;;;;;;;13.87;11.57;;;17.80;85.90;;;;;;5052756;28;20443;-65
2022/06/01 07:07:34;;;;;;;4.10;3.20;;;17.80;83.00;;;;;;5052304;28;20532;-66
2022/06/01 07:10:01;;;;;;;3.53;2.10;;;17.90;84.30;;;;;;5052865;28;20452;-65
2022/06/01 07:12:29;;;;;;;8.67;5.57;;;18.00;84.20;;;;;;5052764;28;20488;-65
2022/06/01 07:14:55;;;;;;;4.80;2.70;;;18.10;79.80;;;;;;5052565;28;20779;-65
2022/06/01 07:17:22;;;;;;;5.67;3.10;;;18.30;81.30;;;;;;5052655;28;20528;-65
2022/06/01 07:19:50;;;;;;;3.97;2.20;;;18.30;77.50;;;;;;5052613;28;20437;-65
2022/06/01 07:22:18;;;;;;;3.17;2.00;;;18.30;78.20;;;;;;5055233;28;20433;-65
2022/06/01 07:24:45;;;;;;;3.63;2.00;;;18.30;77.50;;;;;;5056024;28;20957;-65
2022/06/01 07:27:12;;;;;;;3.00;1.63;;;18.40;76.70;;;;;;5056319;28;20441;-65
2022/06/01 07:29:38;;;;;;;3.53;2.00;;;18.40;77.70;;;;;;5056246;28;20870;-65
2022/06/01 07:32:06;;;;;;;3.43;2.10;;;18.40;75.50;;;;;;5056213;28;21101;-66
2022/06/01 07:34:33;;;;;;;3.53;2.23;;;18.50;76.70;;;;;;5056401;28;20527;-66
2022/06/01 07:43:05;;;;;;;5.40;1.50;;;18.50;74.30;;;;;;5055974;28;20519;-65
2022/06/01 07:45:17;;;;;;;3.07;1.90;;;18.70;76.10;;;;;;5056197;28;20420;-65
2022/06/01 07:47:44;;;;;;;4.10;1.93;;;18.90;76.70;;;;;;5055907;28;20468;-65
2022/06/01 07:50:11;;;;;;;3.73;1.60;;;19.00;74.80;;;;;;5055990;28;20440;-66
2022/06/01 07:52:38;;;;;;;4.33;1.70;;;19.10;74.00;;;;;;5055977;28;20575;-66
2022/06/01 07:55:07;;;;;;;3.33;1.70;;;19.30;72.80;;;;;;5055880;28;20442;-65
2022/06/01 07:57:34;;;;;;;3.57;1.70;;;19.40;70.70;;;;;;5055936;28;20479;-66
2022/06/01 08:00:01;;;;;;;7.20;1.70;;;19.60;68.10;;;;;;5055290;28;20456;-66
2022/06/01 08:02:28;;;;;;;4.60;2.00;;;19.60;64.90;;;;;;5055919;28;20501;-65
2022/06/01 08:04:55;;;;;;;3.43;1.70;;;19.70;64.50;;;;;;5055651;28;20436;-65
2022/06/01 08:07:23;;;;;;;3.03;2.47;;;19.80;65.20;;;;;;5055812;28;20443;-65
2022/06/01 08:09:49;;;;;;;4.60;2.30;;;19.90;61.70;;;;;;5055844;28;20445;-65
2022/06/01 08:15:02;;;;;;;2.93;1.50;;;20.20;66.20;;;;;;5055595;28;20420;-66
2022/06/01 08:17:29;;;;;;;4.83;1.97;;;20.40;66.20;;;;;;5055706;28;20441;-65
2022/06/01 08:19:56;;;;;;;2.53;1.67;;;20.60;66.10;;;;;;5055374;28;20449;-66
2022/06/01 08:22:23;;;;;;;2.73;1.77;;;20.90;66.60;;;;;;5055598;28;20954;-65
2022/06/01 08:24:50;;;;;;;3.43;2.00;;;21.20;59.80;;;;;;5055266;28;20440;-65
2022/06/01 08:27:18;;;;;;;4.00;2.07;;;21.50;61.50;;;;;;5055394;28;20535;-65
2022/06/01 08:29:45;;;;;;;2.87;1.47;;;21.80;59.60;;;;;;5054923;28;20530;-66
2022/06/01 08:32:12;;;;;;;6.30;2.33;;;22.10;58.80;;;;;;5054991;28;20472;-66
2022/06/01 08:34:39;;;;;;;2.63;1.57;;;22.40;59.40;;;;;;5055278;28;20441;-65
2022/06/01 08:37:07;;;;;;;3.47;1.50;;;22.50;55.50;;;;;;5054920;28;20449;-66
2022/06/01 08:39:34;;;;;;;3.17;1.60;;;22.60;57.80;;;;;;5055245;28;20517;-66
2022/06/01 08:42:03;;;;;;;6.00;1.77;;;22.60;56.50;;;;;;5055269;28;20951;-66
2022/06/01 08:44:34;;;;;;;3.63;1.63;;;22.80;56.80;;;;;;5054988;28;20863;-65
2022/06/01 08:47:06;;;;;;;5.30;3.60;;;22.90;56.90;;;;;;5054824;28;20436;-66
2022/06/01 08:49:35;;;;;;;2.23;1.30;;;22.90;55.90;;;;;;5055135;28;20449;-65
2022/06/01 08:52:03;;;;;;;2.73;1.77;;;22.90;55.30;;;;;;5055095;28;20535;-65
2022/06/01 08:54:30;;;;;;;4.13;2.03;;;22.80;48.40;;;;;;5055190;28;20527;-65
2022/06/01 08:57:02;;;;;;;4.77;1.70;;;22.80;51.10;;;;;;5054975;28;20519;-66
2022/06/01 08:59:41;;;;;;;3.17;1.70;;;22.90;53.10;;;;;;5055015;28;20448;-66
2022/06/01 09:02:23;;;;;;;2.80;1.40;;;23.10;50.50;;;;;;5054778;28;20899;-66
2022/06/01 09:04:54;;;;;;;8.50;1.73;;;23.00;45.90;;;;;;5054754;28;20790;-66
2022/06/01 09:07:28;;;;;;;3.23;1.53;;;23.00;47.40;;;;;;5054862;28;20437;-66
2022/06/01 09:10:15;;;;;;;3.97;1.43;;;23.20;50.00;;;;;;5054637;28;20859;-65
2022/06/01 09:12:42;;;;;;;6.37;2.03;;;23.40;48.20;;;;;;5054684;28;20507;-66
2022/06/01 09:15:17;;;;;;;6.30;4.57;;;23.50;47.00;;;;;;5054626;28;21026;-68
2022/06/01 09:17:44;;;;;;;4.00;2.70;;;23.60;45.00;;;;;;5054542;28;20440;-65
2022/06/01 09:23:01;;;;;;;5.73;2.50;;;23.90;48.00;;;;;;5054363;28;20479;-66
2022/06/01 09:25:32;;;;;;;3.03;1.53;;;23.70;41.60;;;;;;5054508;28;20449;-65
2022/06/01 09:28:03;;;;;;;4.73;1.67;;;23.60;41.20;;;;;;5054362;28;20532;-65
2022/06/01 09:30:35;;;;;;;2.87;1.40;;;23.60;44.70;;;;;;5053996;28;20479;-66
2022/06/01 09:33:15;;;;;;;4.03;1.37;;;23.90;46.70;;;;;;5054298;28;20480;-65
2022/06/01 09:35:45;;;;;;;3.10;1.60;;;24.20;46.40;;;;;;5054237;28;20519;-66
2022/06/01 09:38:20;;;;;;;4.57;1.90;;;24.40;47.10;;;;;;5053975;28;20935;-66
2022/06/01 09:40:47;;;;;;;3.73;1.80;;;24.60;41.60;;;;;;5054124;28;20910;-66
2022/06/01 09:43:25;;;;;;;4.20;1.80;;;24.60;42.30;;;;;;5053057;28;20441;-65
2022/06/01 09:45:55;;;;;;;2.50;1.50;;;24.70;44.60;;;;;;5053394;28;20437;-66
2022/06/01 09:48:33;;;;;;;4.60;1.80;;;24.80;44.90;;;;;;5053491;28;20896;-65
2022/06/01 09:51:12;;;;;;;3.13;1.60;;;25.00;45.00;;;;;;5053682;28;20451;-65
2022/06/01 09:53:42;;;;;;;5.70;1.60;;;25.30;45.70;;;;;;5053971;28;20484;-66
2022/06/01 09:56:09;;;;;;;2.90;1.60;;;25.60;45.80;;;;;;5053667;28;20524;-66
2022/06/01 10:07:21;;;;;;;2.67;1.60;;;26.30;41.80;;;;;;4991865;28;20429;-65
2022/06/01 10:09:52;;;;;;;4.10;1.70;;;26.30;43.20;;;;;;5030509;28;20523;-65
2022/06/01 10:12:29;;;;;;;7.10;1.87;;;26.50;43.50;;;;;;5053574;28;20434;-65
2022/06/01 10:14:57;;;;;;;2.50;1.50;;;26.60;42.00;;;;;;5053460;28;20799;-65
2022/06/01 10:17:33;;;;;;;3.80;1.63;;;26.70;41.60;;;;;;5053399;28;20444;-65
2022/06/01 10:20:14;;;;;;;2.87;1.60;;;26.70;40.60;;;;;;5053164;28;20450;-66
2022/06/01 10:22:47;;;;;;;2.43;1.20;;;26.90;41.20;;;;;;5053281;28;20539;-66
2022/06/01 10:25:18;;;;;;;3.00;1.43;;;27.10;41.00;;;;;;5053113;28;20487;-66
2022/06/01 10:27:55;;;;;;;3.97;1.80;;;27.50;41.80;;;;;;5053381;28;20768;-66
2022/06/01 10:30:26;;;;;;;4.10;1.57;;;27.80;40.30;;;;;;5053126;28;20953;-65
2022/06/01 10:33:00;;;;;;;3.77;1.80;;;27.90;39.50;;;;;;5053187;28;20571;-66
2022/06/01 10:35:33;;;;;;;7.23;2.10;;;27.90;39.40;;;;;;5052919;28;20440;-66
2022/06/01 10:38:08;;;;;;;2.40;1.40;;;27.80;39.10;;;;;;5053273;28;20868;-66
2022/06/01 10:40:43;;;;;;;7.23;1.77;;;27.70;39.10;;;;;;5053284;28;20444;-66
2022/06/01 10:43:20;;;;;;;3.37;1.57;;;27.60;40.00;;;;;;5053094;28;20524;-66
2022/06/01 10:45:52;;;;;;;2.60;1.40;;;27.70;40.70;;;;;;5053033;28;20472;-66
2022/06/01 10:48:26;;;;;;;3.23;1.63;;;27.90;38.60;;;;;;5052866;28;20794;-66
2022/06/01 10:50:59;;;;;;;2.63;1.20;;;28.20;38.10;;;;;;5052926;28;20523;-66
2022/06/01 10:53:36;;;;;;;5.17;1.80;;;28.30;38.10;;;;;;5052987;28;20491;-66
2022/06/01 10:56:03;;;;;;;2.83;1.40;;;28.30;35.70;;;;;;5057034;28;20875;-67
2022/06/01 10:58:31;;;;;;;2.40;1.80;;;28.30;35.90;;;;;;5059741;28;20490;-66
2022/06/01 11:01:10;;;;;;;4.20;1.77;;;28.20;35.70;;;;;;5059376;28;20437;-66
2022/06/01 11:03:53;;;;;;;3.30;1.67;;;28.40;36.60;;;;;;5059748;28;20444;-67
2022/06/01 11:06:30;;;;;;;2.50;1.47;;;28.50;36.10;;;;;;5059473;28;20468;-66
2022/06/01 11:09:06;;;;;;;2.33;1.53;;;28.50;35.30;;;;;;5059166;28;20927;-66
2022/06/01 11:11:42;;;;;;;3.77;1.80;;;28.50;34.80;;;;;;5059699;28;20531;-67
2022/06/01 11:14:27;;;;;;;2.77;1.57;;;28.50;35.70;;;;;;5059239;28;20478;-66
2022/06/01 11:16:58;;;;;;;6.33;1.50;;;28.60;35.20;;;;;;5059074;28;20618;-66
2022/06/01 11:19:42;;;;;;;2.70;1.23;;;28.60;35.50;;;;;;5059612;28;20432;-66
2022/06/01 11:22:23;;;;;;;5.63;1.70;;;28.50;36.30;;;;;;5059364;28;20532;-66
2022/06/01 11:25:08;;;;;;;3.93;1.80;;;28.50;36.60;;;;;;5059578;28;20859;-65
2022/06/01 11:28:03;;;;;;;3.33;2.20;;;28.70;36.30;;;;;;5059168;28;20437;-66
2022/06/01 11:30:41;;;;;;;2.43;1.50;;;28.80;35.60;;;;;;5058130;28;21002;-66
2022/06/01 11:33:15;;;;;;;3.00;1.67;;;28.80;35.20;;;;;;5059340;28;20480;-66
2022/06/01 11:35:48;;;;;;;2.80;1.30;;;28.80;35.60;;;;;;5059245;28;20478;-66
2022/06/01 11:38:20;;;;;;;2.60;1.70;;;28.70;33.60;;;;;;5059002;28;20773;-66
2022/06/01 11:40:53;;;;;;;2.50;1.50;;;28.40;33.80;;;;;;5059271;28;20494;-66
2022/06/01 11:43:28;;;;;;;3.13;1.40;;;28.20;34.40;;;;;;5059247;28;20834;-65
2022/06/01 11:45:59;;;;;;;3.13;1.50;;;28.00;34.40;;;;;;5058940;28;20447;-66
2022/06/01 11:48:31;;;;;;;2.87;1.40;;;28.00;34.90;;;;;;5058802;28;20992;-66
2022/06/01 11:51:12;;;;;;;2.20;1.13;;;28.00;35.90;;;;;;5059287;28;20506;-65
2022/06/01 11:53:47;;;;;;;3.90;1.77;;;28.00;36.80;;;;;;5059374;28;20805;-66
2022/06/01 11:56:24;;;;;;;3.60;1.43;;;27.90;36.90;;;;;;5059226;28;20527;-65
2022/06/01 11:59:05;;;;;;;4.20;1.90;;;28.00;36.00;;;;;;5059086;28;20444;-66
2022/06/01 12:01:56;;;;;;;3.20;1.37;;;27.80;35.60;;;;;;5059200;28;20440;-66
2022/06/01 12:04:32;;;;;;;4.07;1.80;;;27.60;35.30;;;;;;5059087;28;20915;-66
2022/06/01 12:07:07;;;;;;;4.10;1.40;;;27.30;35.50;;;;;;5056501;28;20472;-66
2022/06/01 12:09:47;;;;;;;2.40;1.37;;;27.00;35.60;;;;;;5055733;28;21005;-66
2022/06/01 12:12:27;;;;;;;5.13;2.13;;;26.70;36.10;;;;;;5055828;28;20433;-66
2022/06/01 12:15:01;;;;;;;6.87;1.87;;;26.50;36.50;;;;;;5055499;28;20527;-65
2022/06/01 12:17:34;;;;;;;3.37;2.10;;;26.30;37.30;;;;;;5055709;28;20826;-65
2022/06/01 12:20:47;;;;;;;5.50;1.67;;;26.10;37.80;;;;;;5055815;28;20445;-66
2022/06/01 12:29:38;;;;;;;4.73;1.90;;;25.90;39.20;;;;;;5054892;28;20921;-66
2022/06/01 12:32:12;;;;;;;5.13;2.87;;;25.90;39.70;;;;;;5055358;28;20451;-66
2022/06/01 12:34:58;;;;;;;3.30;1.50;;;25.90;38.80;;;;;;5055300;28;20540;-66
2022/06/01 12:37:35;;;;;;;4.90;2.10;;;25.80;39.20;;;;;;5055433;28;20945;-65
2022/06/01 12:40:11;;;;;;;3.40;1.40;;;25.80;39.60;;;;;;5055207;28;20516;-66
2022/06/01 12:42:42;;;;;;;3.90;1.57;;;25.90;39.60;;;;;;5054967;28;20494;-66
2022/06/01 12:45:14;;;;;;;3.10;1.43;;;25.90;38.70;;;;;;5055026;28;20485;-67
2022/06/01 12:47:50;;;;;;;2.20;1.40;;;26.00;39.10;;;;;;5054829;28;20969;-65
2022/06/01 12:50:21;;;;;;;2.77;1.40;;;26.20;39.60;;;;;;5054766;28;20793;-65
2022/06/01 12:52:48;;;;;;;4.03;2.00;;;26.50;39.80;;;;;;5055032;28;20444;-66
2022/06/01 12:55:25;;;;;;;3.30;1.47;;;26.70;37.50;;;;;;5054791;28;20484;-66
2022/06/01 12:57:55;;;;;;;2.60;1.40;;;26.70;37.40;;;;;;5054712;28;20439;-63
2022/06/01 13:00:26;;;;;;;6.43;2.00;;;26.70;37.20;;;;;;5054288;28;20452;-63
2022/06/01 13:02:54;;;;;;;2.80;1.77;;;26.70;37.60;;;;;;5054816;28;20540;-63
2022/06/01 13:05:23;;;;;;;3.03;1.97;;;26.80;36.80;;;;;;5054683;28;20441;-63
2022/06/01 13:07:54;;;;;;;4.37;1.67;;;26.90;37.30;;;;;;5054602;28;20527;-63
2022/06/01 13:10:26;;;;;;;2.60;1.63;;;27.00;37.30;;;;;;5054441;28;20452;-63
2022/06/01 13:13:02;;;;;;;3.03;1.50;;;26.90;37.40;;;;;;5054625;28;20510;-63
2022/06/01 13:15:29;;;;;;;3.63;1.60;;;26.70;37.70;;;;;;5054393;28;20567;-63
2022/06/01 13:17:59;;;;;;;3.00;1.70;;;26.60;37.30;;;;;;5054103;28;20449;-63
2022/06/01 13:20:35;;;;;;;2.10;1.20;;;26.40;37.00;;;;;;5053363;28;20527;-63
2022/06/01 13:23:05;;;;;;;3.90;1.50;;;26.30;37.40;;;;;;5054251;28;20848;-64
2022/06/01 13:25:36;;;;;;;8.70;1.80;;;26.20;38.10;;;;;;5054265;28;20505;-63
2022/06/01 13:28:04;;;;;;;3.13;1.53;;;26.00;38.30;;;;;;5054347;28;20844;-64
2022/06/01 13:30:33;;;;;;;4.73;1.57;;;25.90;38.00;;;;;;5054031;28;20440;-63
2022/06/01 13:33:20;;;;;;;4.33;1.67;;;25.90;38.60;;;;;;5054211;28;20446;-66
2022/06/01 13:35:58;;;;;;;4.97;1.93;;;25.90;38.70;;;;;;5053742;28;20443;-65
2022/06/01 13:38:33;;;;;;;3.97;1.80;;;25.90;39.60;;;;;;5054085;28;20538;-65
2022/06/01 13:41:05;;;;;;;3.80;1.30;;;26.00;39.20;;;;;;5054049;28;20447;-65